Time;durP1;ratioP1;P1;durP2;ratioP2;P2;SDS_P1;SDS_P2;PMS_P1;PMS_P2;Temp;Humidity;BMP_temperature;BMP_pressure;BME280_temperature;BME280_humidity;BME280_pressure;Samples;Min_cycle;Max_cycle;Signal;HPM_P1;HPM_P2
2022/02/12 00:00:56;;;;;;;13.33;4.77;;;;;;;-145.69;100.00;74404.22;5093073;28;20198;-75
2022/02/12 00:03:23;;;;;;;9.57;4.10;;;;;;;-145.69;100.00;74442.06;5093916;28;20289;-75
2022/02/12 00:05:50;;;;;;;11.57;4.57;;;;;;;-145.69;100.00;74448.03;5092727;28;20194;-75
2022/02/12 00:08:16;;;;;;;10.77;5.13;;;;;;;-145.69;100.00;74461.97;5092758;28;20260;-75
2022/02/12 00:10:43;;;;;;;15.37;4.83;;;;;;;-145.69;100.00;74461.97;5092742;28;20568;-76
2022/02/12 00:13:11;;;;;;;13.57;5.50;;;;;;;-145.69;100.00;74438.09;5092716;28;20198;-76
2022/02/12 00:15:38;;;;;;;22.30;5.50;;;;;;;-145.69;100.00;74420.16;5092761;28;20709;-76
2022/02/12 00:18:06;;;;;;;14.93;5.33;;;;;;;-145.69;100.00;74408.22;5092749;28;20198;-76
2022/02/12 00:20:32;;;;;;;16.87;5.77;;;;;;;-145.69;100.00;74414.19;5092472;28;20195;-76
2022/02/12 00:22:59;;;;;;;18.17;5.27;;;;;;;-145.69;100.00;74430.13;5094717;28;20194;-75
2022/02/12 00:25:26;;;;;;;18.80;5.13;;;;;;;-145.69;100.00;74436.09;5096328;28;20240;-76
2022/02/12 00:27:52;;;;;;;16.10;6.00;;;;;;;-145.69;100.00;74420.16;5092755;28;20202;-76
2022/02/12 00:30:19;;;;;;;19.10;5.90;;;;;;;-145.69;100.00;74430.13;5092617;28;20676;-76
2022/02/12 00:32:45;;;;;;;19.37;5.70;;;;;;;-145.69;100.00;74442.06;5094064;28;20606;-76
2022/02/12 00:35:13;;;;;;;10.87;4.77;;;;;;;-145.69;100.00;74446.06;5092590;28;20204;-76
2022/02/12 00:37:39;;;;;;;13.93;4.83;;;;;;;-145.69;100.00;74444.06;5092864;28;20194;-75
2022/02/12 00:40:10;;;;;;;15.10;4.70;;;;;;;-145.69;100.00;74432.13;5092670;28;20251;-76
2022/02/12 00:42:36;;;;;;;20.13;5.13;;;;;;;-145.69;100.00;74424.16;5092742;28;20568;-76
2022/02/12 00:45:03;;;;;;;19.80;5.80;;;;;;;-145.69;100.00;74412.19;5092438;28;20701;-76
2022/02/12 00:47:30;;;;;;;20.87;5.87;;;;;;;-145.69;100.00;74432.13;5092433;28;20194;-76
2022/02/12 00:49:56;;;;;;;14.47;4.83;;;;;;;-145.69;100.00;74448.03;5092739;28;20202;-76
2022/02/12 00:52:24;;;;;;;15.27;5.20;;;;;;;-145.69;100.00;74467.97;5092854;28;20557;-76
2022/02/12 00:54:51;;;;;;;16.10;5.23;;;;;;;-145.69;100.00;74465.97;5092331;28;20230;-75
2022/02/12 00:57:17;;;;;;;18.47;4.93;;;;;;;-145.69;100.00;74477.91;5092364;28;20194;-75
2022/02/12 00:59:44;;;;;;;14.17;5.23;;;;;;;-145.69;100.00;74475.94;5092432;28;20549;-76
2022/02/12 01:02:10;;;;;;;12.53;4.80;;;;;;;-145.69;100.00;74454.03;5092262;28;20198;-75
2022/02/12 01:04:37;;;;;;;12.43;5.10;;;;;;;-145.69;100.00;74448.03;5092574;28;20237;-76
2022/02/12 01:07:04;;;;;;;18.60;5.13;;;;;;;-145.69;100.00;74440.09;5092511;28;20202;-76
2022/02/12 01:09:32;;;;;;;17.83;5.03;;;;;;;-145.69;100.00;74432.13;5092551;28;20202;-76
2022/02/12 01:11:58;;;;;;;18.90;5.63;;;;;;;-145.69;100.00;74424.16;5092480;28;20194;-76
2022/02/12 01:14:25;;;;;;;11.80;5.17;;;;;;;-145.69;100.00;74442.06;5092294;28;20195;-76
2022/02/12 01:16:53;;;;;;;17.90;4.53;;;;;;;-145.69;100.00;74438.09;5092164;28;20553;-75
2022/02/12 01:19:19;;;;;;;8.43;3.97;;;;;;;-145.69;100.00;74452.03;5092817;28;20198;-76
2022/02/12 01:21:46;;;;;;;13.70;4.70;;;;;;;-145.69;100.00;74458.00;5099103;28;20201;-76
2022/02/12 01:24:12;;;;;;;12.60;4.87;;;;;;;-145.69;100.00;74444.06;5116004;28;20217;-76
2022/02/12 01:26:40;;;;;;;16.53;5.07;;;;;;;-145.69;100.00;74420.16;5116188;28;20205;-76
2022/02/12 01:29:06;;;;;;;10.20;4.13;;;;;;;-145.69;100.00;74408.22;5112535;28;20226;-76
2022/02/12 01:31:33;;;;;;;16.83;4.90;;;;;;;-145.69;100.00;74408.22;5116305;28;20201;-76
2022/02/12 01:34:00;;;;;;;14.80;4.50;;;;;;;-145.69;100.00;74432.13;5116020;28;20240;-76
2022/02/12 01:36:27;;;;;;;17.83;4.13;;;;;;;-145.69;100.00;74420.16;5116116;28;20302;-76
2022/02/12 01:38:53;;;;;;;14.03;4.80;;;;;;;-145.69;100.00;74388.31;5116275;28;20244;-76
2022/02/12 01:41:20;;;;;;;14.77;4.53;;;;;;;-145.69;100.00;74406.22;5099721;28;20194;-75
2022/02/12 01:43:47;;;;;;;16.03;4.10;;;;;;;-145.69;100.00;74408.22;5095336;28;20259;-76
2022/02/12 01:46:14;;;;;;;15.70;4.03;;;;;;;-145.69;100.00;74408.22;5095592;28;20198;-75
2022/02/12 01:48:43;;;;;;;12.50;3.80;;;;;;;-145.69;100.00;74396.28;5095437;28;20212;-75
2022/02/12 01:51:10;;;;;;;13.63;4.20;;;;;;;-145.69;100.00;74400.25;5095461;28;20202;-76
2022/02/12 01:53:37;;;;;;;12.50;4.33;;;;;;;-145.69;100.00;74394.28;5113848;28;20209;-76
2022/02/12 01:56:04;;;;;;;14.03;4.17;;;;;;;-145.69;100.00;74404.22;5115412;28;20236;-76
2022/02/12 01:58:31;;;;;;;15.80;3.90;;;;;;;-145.69;100.00;74388.31;5115425;28;20207;-76
2022/02/12 02:00:59;;;;;;;7.93;3.50;;;;;;;-145.69;100.00;74394.28;5115619;28;20220;-76
2022/02/12 02:03:25;;;;;;;11.47;3.80;;;;;;;-145.69;100.00;74392.28;5115489;28;20197;-75
2022/02/12 02:05:55;;;;;;;10.97;3.83;;;;;;;-145.69;100.00;74384.31;5115466;28;20281;-76
2022/02/12 02:08:22;;;;;;;11.87;3.30;;;;;;;-145.69;100.00;74396.28;5113635;28;20272;-76
2022/02/12 02:10:48;;;;;;;12.93;3.60;;;;;;;-145.69;100.00;74400.25;5115277;28;20213;-75
2022/02/12 02:13:25;;;;;;;13.93;3.90;;;;;;;-145.69;100.00;74384.31;5115407;28;20205;-77
2022/02/12 02:15:52;;;;;;;11.17;3.23;;;;;;;-145.69;100.00;74368.38;5115257;28;20201;-76
2022/02/12 02:18:20;;;;;;;12.77;3.83;;;;;;;-145.69;100.00;74374.38;5115323;28;20201;-76
2022/02/12 02:20:47;;;;;;;12.00;3.57;;;;;;;-145.69;100.00;74406.22;5115211;28;20197;-76
2022/02/12 02:23:15;;;;;;;12.57;3.63;;;;;;;-145.69;100.00;74380.34;5115264;28;20212;-76
2022/02/12 02:25:42;;;;;;;16.23;3.33;;;;;;;-145.69;100.00;74368.38;5114967;28;20244;-76
2022/02/12 02:28:08;;;;;;;10.03;3.30;;;;;;;-145.69;100.00;74384.31;5115313;28;20205;-76
2022/02/12 02:30:36;;;;;;;9.50;3.30;;;;;;;-145.69;100.00;74392.28;5114829;28;20204;-76
2022/02/12 02:33:02;;;;;;;12.67;3.33;;;;;;;-145.69;100.00;74402.25;5112990;28;20198;-76
2022/02/12 02:35:29;;;;;;;7.87;3.20;;;;;;;-145.69;100.00;74384.31;5114828;28;20201;-76
2022/02/12 02:37:56;;;;;;;9.43;2.93;;;;;;;-145.69;100.00;74390.28;5114608;28;20197;-76
2022/02/12 02:40:24;;;;;;;6.97;3.10;;;;;;;-145.69;100.00;74394.28;5114981;28;20204;-76
2022/02/12 02:42:52;;;;;;;6.43;3.27;;;;;;;-145.69;100.00;74388.31;5114649;28;20660;-76
2022/02/12 02:45:19;;;;;;;10.37;3.23;;;;;;;-145.69;100.00;74358.44;5114497;28;20221;-76
2022/02/12 02:47:46;;;;;;;8.87;3.93;;;;;;;-145.69;100.00;74338.53;5100016;28;20198;-76
2022/02/12 02:56:02;;;;;;;20.63;3.83;;;;;;;-145.69;100.00;74304.66;5094050;28;20245;-76
2022/02/12 02:58:34;;;;;;;18.93;3.63;;;;;;;-145.69;100.00;74310.63;5094075;28;20202;-76
2022/02/12 03:01:01;;;;;;;10.07;3.33;;;;;;;-145.69;100.00;74308.66;5093955;28;20205;-76
2022/02/12 03:03:29;;;;;;;14.77;3.23;;;;;;;-145.69;100.00;74284.75;5094128;28;20201;-76
2022/02/12 03:05:56;;;;;;;9.83;3.17;;;;;;;-145.69;100.00;74268.81;5093879;28;20322;-76
2022/02/12 03:08:23;;;;;;;7.43;3.27;;;;;;;-145.69;100.00;74244.94;5093875;28;20202;-76
2022/02/12 03:10:51;;;;;;;6.07;3.40;;;;;;;-145.69;100.00;74248.91;5093829;28;20212;-76
2022/02/12 03:13:17;;;;;;;19.37;3.90;;;;;;;-145.69;100.00;74229.00;5093621;28;20243;-76
2022/02/12 03:15:44;;;;;;;13.03;3.67;;;;;;;-145.69;100.00;74227.00;5093964;28;20254;-76
2022/02/12 03:18:10;;;;;;;19.73;3.83;;;;;;;-145.69;100.00;74207.09;5110158;28;20197;-76
2022/02/12 03:20:37;;;;;;;9.80;3.73;;;;;;;-145.69;100.00;74215.06;5113969;28;20204;-76
2022/02/12 03:23:05;;;;;;;8.40;3.10;;;;;;;-145.69;100.00;74209.09;5113862;28;20731;-76
2022/02/12 03:25:32;;;;;;;14.27;3.63;;;;;;;-145.69;100.00;74215.06;5113850;28;20713;-76
2022/02/12 03:28:02;;;;;;;16.53;3.80;;;;;;;-145.69;100.00;74213.06;5113794;28;20204;-76
2022/02/12 03:30:32;;;;;;;9.83;3.43;;;;;;;-145.69;100.00;74217.06;5113988;28;20201;-76
2022/02/12 03:33:01;;;;;;;15.40;3.87;;;;;;;-145.69;100.00;74209.09;5111309;28;20208;-76
2022/02/12 03:35:28;;;;;;;13.07;3.17;;;;;;;-145.69;100.00;74209.09;5113373;28;20194;-76
2022/02/12 03:37:55;;;;;;;8.77;3.87;;;;;;;-145.69;100.00;74203.13;5104628;28;20194;-76
2022/02/12 03:40:22;;;;;;;10.63;3.50;;;;;;;-145.69;100.00;74205.09;5093656;28;20198;-76
2022/02/12 03:42:49;;;;;;;14.77;3.33;;;;;;;-145.69;100.00;74195.16;5092979;28;20209;-76
2022/02/12 03:45:22;;;;;;;10.60;3.30;;;;;;;-145.69;100.00;74189.19;5093199;28;20229;-76
2022/02/12 03:47:48;;;;;;;11.77;3.87;;;;;;;-145.69;100.00;74185.19;5093355;28;20275;-76
2022/02/12 03:50:15;;;;;;;6.83;3.00;;;;;;;-145.69;100.00;74193.16;5093193;28;20220;-77
2022/02/12 03:52:41;;;;;;;21.17;3.87;;;;;;;-145.69;100.00;74197.13;5093172;28;20623;-76
2022/02/12 03:55:08;;;;;;;17.47;3.60;;;;;;;-145.69;100.00;74187.19;5092659;28;20593;-76
2022/02/12 03:57:36;;;;;;;10.87;3.73;;;;;;;-145.69;100.00;74177.22;5093211;28;20194;-76
2022/02/12 04:00:04;;;;;;;21.60;3.47;;;;;;;-145.69;100.00;74183.19;5093302;28;20244;-76
2022/02/12 04:02:32;;;;;;;8.60;3.40;;;;;;;-145.69;100.00;74171.25;5093149;28;20198;-77
2022/02/12 04:04:58;;;;;;;19.67;4.03;;;;;;;-145.69;100.00;74193.16;5093971;28;20220;-76
2022/02/12 04:07:25;;;;;;;12.17;3.00;;;;;;;-145.69;100.00;74201.13;5092888;28;20201;-76
2022/02/12 04:09:51;;;;;;;9.47;3.53;;;;;;;-145.69;100.00;74189.19;5093002;28;20209;-76
2022/02/12 04:12:18;;;;;;;6.93;2.97;;;;;;;-145.69;100.00;74195.16;5093039;28;20564;-76
2022/02/12 04:14:44;;;;;;;16.40;3.57;;;;;;;-145.69;100.00;74183.19;5092970;28;20572;-76
2022/02/12 04:17:13;;;;;;;9.13;2.80;;;;;;;-145.69;100.00;74163.28;5092923;28;20198;-77
2022/02/12 04:19:41;;;;;;;10.23;3.37;;;;;;;-145.69;100.00;74169.25;5092896;28;20201;-77
2022/02/12 04:22:08;;;;;;;19.40;4.50;;;;;;;-145.69;100.00;74185.19;5092708;28;20205;-76
2022/02/12 04:24:34;;;;;;;11.93;3.13;;;;;;;-145.69;100.00;74179.22;5092815;28;20216;-77
2022/02/12 04:27:01;;;;;;;14.37;3.47;;;;;;;-145.69;100.00;74181.22;5092888;28;20292;-77
2022/02/12 04:29:27;;;;;;;12.73;3.73;;;;;;;-145.69;100.00;74181.22;5092827;28;20202;-76
2022/02/12 04:31:54;;;;;;;14.50;3.30;;;;;;;-145.69;100.00;74153.34;5092841;28;20240;-76
2022/02/12 04:34:20;;;;;;;16.63;4.60;;;;;;;-145.69;100.00;74143.38;5105268;28;20194;-77
2022/02/12 04:36:50;;;;;;;14.97;3.67;;;;;;;-145.69;100.00;74163.28;5112952;28;20205;-77
2022/02/12 04:39:16;;;;;;;10.07;3.27;;;;;;;-145.69;100.00;74143.38;5112975;28;20197;-76
2022/02/12 04:41:43;;;;;;;15.47;3.53;;;;;;;-145.69;100.00;74145.38;5113150;28;20194;-76
2022/02/12 04:44:11;;;;;;;10.77;3.27;;;;;;;-145.69;100.00;74129.44;5113032;28;20200;-76
2022/02/12 04:46:38;;;;;;;9.03;3.30;;;;;;;-145.69;100.00;74145.38;5112891;28;20707;-76
2022/02/12 04:49:05;;;;;;;14.83;4.00;;;;;;;-145.69;100.00;74145.38;5112469;28;20768;-77
2022/02/12 04:51:32;;;;;;;15.03;3.70;;;;;;;-145.69;100.00;74145.38;5112913;28;20705;-77
2022/02/12 04:53:59;;;;;;;20.33;4.03;;;;;;;-145.69;100.00;74161.28;5113081;28;20201;-76
2022/02/12 04:56:27;;;;;;;14.83;4.07;;;;;;;-145.69;100.00;74165.28;5116559;28;20629;-76
2022/02/12 04:58:53;;;;;;;12.87;3.80;;;;;;;-145.69;100.00;74149.34;5116783;28;20204;-76
2022/02/12 05:01:24;;;;;;;15.07;3.80;;;;;;;-145.69;100.00;74153.34;5116746;28;20243;-76
2022/02/12 05:03:52;;;;;;;16.53;3.83;;;;;;;-145.69;100.00;74173.25;5105406;28;20198;-76
2022/02/12 05:06:19;;;;;;;16.13;3.83;;;;;;;-145.69;100.00;74165.28;5096279;28;20230;-76
2022/02/12 05:08:47;;;;;;;13.07;3.67;;;;;;;-145.69;100.00;74157.31;5095944;28;20194;-76
2022/02/12 05:11:16;;;;;;;9.63;3.63;;;;;;;-145.69;100.00;74165.28;5095930;28;20572;-76
2022/02/12 05:13:43;;;;;;;16.93;4.33;;;;;;;-145.69;100.00;74141.38;5096101;28;20198;-76
2022/02/12 05:16:09;;;;;;;17.50;4.03;;;;;;;-145.69;100.00;74143.38;5096038;28;20228;-76
2022/02/12 05:18:35;;;;;;;14.17;3.77;;;;;;;-145.69;100.00;74129.44;5095905;28;20202;-76
2022/02/12 05:21:02;;;;;;;17.13;4.40;;;;;;;-145.69;100.00;74137.41;5095913;28;20204;-76
2022/02/12 05:23:28;;;;;;;14.83;4.20;;;;;;;-145.69;100.00;74165.28;5095780;28;20561;-77
2022/02/12 05:25:55;;;;;;;16.73;4.27;;;;;;;-145.69;100.00;74153.34;5095868;28;20226;-76
2022/02/12 05:28:23;;;;;;;14.87;4.43;;;;;;;-145.69;100.00;74149.34;5104332;28;20661;-77
2022/02/12 05:30:50;;;;;;;13.83;4.30;;;;;;;-145.69;100.00;74177.22;5116079;28;20197;-76
2022/02/12 05:33:16;;;;;;;14.57;4.60;;;;;;;-145.69;100.00;74165.28;5110105;28;20217;-77
2022/02/12 05:35:48;;;;;;;12.30;4.70;;;;;;;-145.69;100.00;74155.31;5095782;28;20194;-77
2022/02/12 05:38:15;;;;;;;14.23;4.40;;;;;;;-145.69;100.00;74135.41;5095726;28;20263;-76
2022/02/12 05:40:42;;;;;;;16.73;4.07;;;;;;;-145.69;100.00;74145.38;5095493;28;20198;-77
2022/02/12 05:43:08;;;;;;;14.20;4.27;;;;;;;-145.69;100.00;74133.41;5095535;28;20214;-77
2022/02/12 05:45:36;;;;;;;10.97;4.17;;;;;;;-145.69;100.00;74123.47;5095236;28;20229;-77
2022/02/12 05:48:03;;;;;;;17.20;4.40;;;;;;;-145.69;100.00;74117.50;5095368;28;20688;-77
2022/02/12 05:50:30;;;;;;;13.57;4.83;;;;;;;-145.69;100.00;74083.63;5095498;28;20244;-77
2022/02/12 05:52:57;;;;;;;18.97;4.60;;;;;;;-145.69;100.00;74081.66;5095344;28;20194;-77
2022/02/12 05:55:24;;;;;;;15.60;3.90;;;;;;;-145.69;100.00;74075.69;5095233;28;20283;-76
2022/02/12 05:57:57;;;;;;;12.27;4.23;;;;;;;-145.69;100.00;74081.66;5095213;28;20285;-77
2022/02/12 06:00:23;;;;;;;14.63;4.10;;;;;;;-145.69;100.00;74109.53;5095100;28;20202;-76
2022/02/12 06:02:51;;;;;;;8.40;3.93;;;;;;;-145.69;100.00;74129.44;5096986;28;20198;-76
2022/02/12 06:05:18;;;;;;;12.30;3.80;;;;;;;-145.69;100.00;74129.44;5114919;28;20209;-77
2022/02/12 06:07:44;;;;;;;16.03;3.97;;;;;;;-145.69;100.00;74129.44;5115102;28;20541;-77
2022/02/12 06:10:11;;;;;;;16.73;4.50;;;;;;;-145.69;100.00;74117.50;5115229;28;20205;-76
2022/02/12 06:12:38;;;;;;;27.23;5.27;;;;;;;-145.69;100.00;74069.69;5114976;28;20661;-77
2022/02/12 06:15:05;;;;;;;10.03;3.93;;;;;;;-145.69;100.00;74079.66;5115315;28;20201;-77
2022/02/12 06:17:32;;;;;;;11.47;3.77;;;;;;;-145.69;100.00;74095.59;5115416;28;20280;-77
2022/02/12 06:20:00;;;;;;;16.17;4.20;;;;;;;-145.69;100.00;74073.69;5115357;28;20198;-77
2022/02/12 06:22:28;;;;;;;13.17;4.33;;;;;;;-145.69;100.00;74077.66;5114955;28;20201;-77
2022/02/12 06:24:55;;;;;;;10.23;3.63;;;;;;;-145.69;100.00;74077.66;5115473;28;20198;-77
2022/02/12 06:27:22;;;;;;;12.70;4.00;;;;;;;-145.69;100.00;74057.75;5115054;28;20221;-77
2022/02/12 06:29:49;;;;;;;13.33;4.30;;;;;;;-145.69;100.00;74049.78;5115105;28;20205;-77
2022/02/12 06:32:15;;;;;;;11.87;3.53;;;;;;;-145.69;100.00;74043.81;5115053;28;20671;-77
2022/02/12 06:34:41;;;;;;;17.13;3.97;;;;;;;-145.69;100.00;74023.91;5094804;28;20206;-76
2022/02/12 06:37:09;;;;;;;22.20;4.20;;;;;;;-145.69;100.00;74021.91;5094582;28;20205;-76
2022/02/12 06:39:37;;;;;;;13.00;4.00;;;;;;;-145.69;100.00;74039.84;5094520;28;20229;-76
2022/02/12 06:42:05;;;;;;;15.90;4.07;;;;;;;-145.69;100.00;74035.84;5094543;28;20194;-76
2022/02/12 06:44:32;;;;;;;15.00;4.20;;;;;;;-145.69;100.00;74037.84;5094284;28;20198;-76
2022/02/12 06:46:58;;;;;;;22.77;4.97;;;;;;;-145.69;100.00;74033.84;5094009;28;20230;-76
2022/02/12 06:49:25;;;;;;;14.57;3.70;;;;;;;-145.69;100.00;74033.84;5094183;28;20202;-76
2022/02/12 06:51:51;;;;;;;15.00;4.00;;;;;;;-145.69;100.00;74017.94;5094202;28;20198;-77
2022/02/12 06:54:20;;;;;;;10.27;4.10;;;;;;;-145.69;100.00;74029.88;5093993;28;20237;-77
2022/02/12 06:56:46;;;;;;;13.10;4.13;;;;;;;-145.69;100.00;74013.94;5093925;28;20333;-76
2022/02/12 06:59:13;;;;;;;18.03;4.17;;;;;;;-145.69;100.00;74009.97;5094125;28;20600;-77
2022/02/12 07:01:39;;;;;;;13.67;4.13;;;;;;;-145.69;100.00;74007.97;5094117;28;20232;-77
2022/02/12 07:04:06;;;;;;;13.43;4.13;;;;;;;-145.69;100.00;74009.97;5108220;28;20197;-77
2022/02/12 07:06:33;;;;;;;18.10;4.50;;;;;;;-145.69;100.00;74009.97;5114166;28;20225;-77
2022/02/12 07:08:59;;;;;;;17.53;4.30;;;;;;;-145.69;100.00;74013.94;5114104;28;20197;-77
2022/02/12 07:11:27;;;;;;;13.50;3.93;;;;;;;-145.69;100.00;74025.91;5114297;28;20537;-77
2022/02/12 07:13:53;;;;;;;15.77;3.97;;;;;;;-145.69;100.00;74041.81;5114359;28;20205;-76
2022/02/12 07:16:20;;;;;;;10.57;4.17;;;;;;;-145.69;100.00;74017.94;5114200;28;20201;-76
2022/02/12 07:18:48;;;;;;;11.97;4.07;;;;;;;-145.69;100.00;74029.88;5113388;28;20216;-77
2022/02/12 07:21:15;;;;;;;12.70;4.05;;;;;;;-145.69;100.00;74055.75;5109161;28;20450;-76
2022/02/12 07:23:41;;;;;;;11.37;3.33;;;;;;;-145.69;100.00;74057.75;5114118;28;20198;-77
2022/02/12 07:26:08;;;;;;;12.90;3.57;;;;;;;-145.69;100.00;74081.66;5113974;28;20225;-76
2022/02/12 07:28:36;;;;;;;14.07;4.37;;;;;;;-145.69;100.00;74101.56;5113762;28;20194;-77
2022/02/12 07:31:02;;;;;;;11.00;4.17;;;;;;;-145.69;100.00;74121.47;5114003;28;20212;-76
2022/02/12 07:33:29;;;;;;;13.37;3.87;;;;;;;-145.69;100.00;74129.44;5104487;28;20198;-76
2022/02/12 07:35:56;;;;;;;8.80;3.43;;;;;;;-145.69;100.00;74093.59;5093196;28;20245;-77
2022/02/12 07:38:22;;;;;;;13.97;3.77;;;;;;;-145.69;100.00;74073.69;5093414;28;20293;-76
2022/02/12 07:40:49;;;;;;;16.03;4.57;;;;;;;-145.69;100.00;74053.78;5093404;28;20198;-76
2022/02/12 07:43:15;;;;;;;11.53;4.60;;;;;;;-145.69;100.00;74023.91;5093320;28;20206;-76
2022/02/12 07:45:43;;;;;;;21.17;4.77;;;;;;;-145.69;100.00;74045.81;5093280;28;20206;-77
2022/02/12 07:48:09;;;;;;;24.90;5.40;;;;;;;-145.69;100.00;74041.81;5093192;28;20254;-77
2022/02/12 07:50:36;;;;;;;14.73;4.40;;;;;;;-145.69;100.00;74025.91;5092722;28;20284;-76
2022/02/12 07:53:04;;;;;;;13.63;3.87;;;;;;;-145.69;100.00;74023.91;5093292;28;20200;-76
2022/02/12 07:55:31;;;;;;;17.00;4.47;;;;;;;-145.69;100.00;74011.97;5093006;28;20230;-76
2022/02/12 07:57:58;;;;;;;15.47;4.60;;;;;;;-145.69;100.00;74017.94;5093139;28;20216;-76
2022/02/12 08:00:25;;;;;;;13.80;4.80;;;;;;;-145.69;100.00;74027.88;5093075;28;20204;-76
2022/02/12 08:02:54;;;;;;;18.53;4.23;;;;;;;-145.69;100.00;74029.88;5095798;28;20556;-77
2022/02/12 08:05:21;;;;;;;12.80;4.57;;;;;;;-145.69;100.00;74051.78;5113521;28;20200;-76
2022/02/12 08:07:47;;;;;;;14.77;4.83;;;;;;;-145.69;100.00;74075.69;5113261;28;20234;-77
2022/02/12 08:13:01;;;;;;;16.37;5.03;;;;;;;-145.69;100.00;74069.69;5113301;28;20200;-76
2022/02/12 08:15:29;;;;;;;13.43;4.10;;;;;;;-145.69;100.00;74037.84;5113051;28;20229;-77
2022/02/12 08:17:57;;;;;;;17.40;5.33;;;;;;;-145.69;100.00;74007.97;5113113;28;20197;-77
2022/02/12 08:20:24;;;;;;;12.87;4.67;;;;;;;-145.69;100.00;74005.97;5113357;28;20210;-77
2022/02/12 08:22:54;;;;;;;14.30;4.67;;;;;;;-145.69;100.00;73994.03;5113181;28;20204;-76
2022/02/12 08:25:21;;;;;;;17.03;4.80;;;;;;;-145.69;100.00;73970.16;5111283;28;20760;-76
2022/02/12 08:27:47;;;;;;;22.57;5.33;;;;;;;-145.69;100.00;73958.19;5112881;28;20699;-77
2022/02/12 08:30:14;;;;;;;14.60;4.37;;;;;;;-145.69;100.00;73942.25;5116956;28;20302;-77
2022/02/12 08:32:42;;;;;;;10.93;5.00;;;;;;;-145.69;100.00;73922.34;5117437;28;20201;-76
2022/02/12 08:35:11;;;;;;;9.20;3.83;;;;;;;-145.69;100.00;73914.38;5117467;28;20205;-76
2022/02/12 08:37:39;;;;;;;12.80;4.43;;;;;;;-145.69;100.00;73892.50;5117197;28;20197;-76
2022/02/12 08:40:07;;;;;;;11.90;5.07;;;;;;;-145.69;100.00;73874.56;5116983;28;20231;-76
2022/02/12 08:42:37;;;;;;;14.13;5.07;;;;;;;-145.69;100.00;73874.56;5117085;28;20199;-76
2022/02/12 08:45:04;;;;;;;10.70;5.30;;;;;;;-145.69;100.00;73854.66;5114616;28;20197;-75
2022/02/12 08:47:31;;;;;;;10.37;4.30;;;;;;;-145.69;100.00;73844.69;5096550;28;20275;-75
2022/02/12 08:49:58;;;;;;;13.53;4.30;;;;;;;-145.69;100.00;73832.75;5096453;28;20205;-75
2022/02/12 08:52:26;;;;;;;7.40;3.90;;;;;;;-145.69;100.00;73824.78;5112836;28;20206;-77
2022/02/12 08:54:52;;;;;;;9.67;4.10;;;;;;;-145.69;100.00;73814.84;5115716;28;20316;-77
2022/02/12 08:57:19;;;;;;;12.27;3.30;;;;;;;-145.69;100.00;73814.84;5116465;28;20204;-77
2022/02/12 08:59:45;;;;;;;11.90;3.97;;;;;;;-145.69;100.00;73806.88;5107502;28;20201;-76
2022/02/12 09:02:15;;;;;;;12.30;4.47;;;;;;;-145.69;100.00;73794.94;5109413;28;20209;-76
2022/02/12 09:04:42;;;;;;;14.50;4.27;;;;;;;-145.69;100.00;73779.00;5105470;28;20204;-76
2022/02/12 09:07:09;;;;;;;10.77;3.67;;;;;;;-145.69;100.00;73773.03;5113920;28;20229;-76
2022/02/12 09:09:37;;;;;;;12.63;4.10;;;;;;;-145.69;100.00;73761.06;5107249;28;20194;-76
2022/02/12 09:12:04;;;;;;;10.07;3.57;;;;;;;-145.69;100.00;73747.13;5096076;28;20202;-77
2022/02/12 09:14:34;;;;;;;10.23;3.77;;;;;;;-145.69;100.00;73755.09;5110581;28;20201;-76
2022/02/12 09:17:01;;;;;;;8.37;4.03;;;;;;;-145.69;100.00;73733.19;5116526;28;20197;-76
2022/02/12 09:19:28;;;;;;;9.13;2.97;;;;;;;-145.69;99.65;73725.25;5112827;28;20288;-75
2022/02/12 09:21:54;;;;;;;10.33;3.40;;;;;;;-145.69;97.46;73723.25;5115721;28;20739;-77
2022/02/12 09:24:21;;;;;;;8.60;3.40;;;;;;;-145.69;95.92;73691.38;5115956;28;20231;-76
2022/02/12 09:26:51;;;;;;;13.83;3.60;;;;;;;-145.69;93.31;73685.41;5115966;28;20228;-76
2022/02/12 09:29:18;;;;;;;6.80;3.43;;;;;;;-145.69;94.89;73689.41;5116090;28;20201;-75
2022/02/12 09:31:44;;;;;;;7.67;3.00;;;;;;;-145.69;93.84;73673.47;5116227;28;20205;-74
2022/02/12 09:34:11;;;;;;;13.23;2.93;;;;;;;-145.69;94.91;73667.50;5116020;28;20540;-75
2022/02/12 09:36:38;;;;;;;6.90;2.90;;;;;;;-145.69;92.20;73671.47;5115916;28;20201;-75
2022/02/12 09:39:05;;;;;;;10.13;3.00;;;;;;;-145.69;90.94;73663.53;5116220;28;20201;-76
2022/02/12 09:41:31;;;;;;;12.37;3.07;;;;;;;-145.69;93.67;73663.53;5115225;28;20201;-75
2022/02/12 09:43:59;;;;;;;8.53;3.37;;;;;;;-145.69;89.82;73651.56;5115901;28;20204;-73
2022/02/12 09:46:52;;;;;;;12.70;2.90;;;;;;;-145.69;89.39;73641.63;5115757;28;20200;-75
2022/02/12 09:49:19;;;;;;;6.80;2.60;;;;;;;-145.69;88.77;73621.72;5115409;28;20201;-76
2022/02/12 09:51:52;;;;;;;6.63;3.17;;;;;;;-145.69;88.02;73603.78;5116080;28;20251;-75
2022/02/12 09:54:22;;;;;;;6.77;3.00;;;;;;;-145.69;88.82;73607.78;5115889;28;20240;-77
2022/02/12 09:56:49;;;;;;;7.60;3.00;;;;;;;-145.69;89.52;73607.78;5115586;28;20242;-75
2022/02/12 09:59:17;;;;;;;7.03;2.93;;;;;;;-145.69;85.51;73599.81;5115709;28;20198;-76
2022/02/12 10:01:44;;;;;;;8.50;3.10;;;;;;;-145.69;85.77;73597.81;5113438;28;20194;-75
2022/02/12 10:04:17;;;;;;;5.17;2.60;;;;;;;-145.69;83.31;73593.84;5095292;28;20206;-75
2022/02/12 10:06:47;;;;;;;7.13;2.87;;;;;;;-145.69;85.83;73589.84;5095104;28;20776;-75
2022/02/12 10:09:15;;;;;;;6.70;2.97;;;;;;;-145.69;86.31;73577.91;5095199;28;20202;-76
2022/02/12 10:11:44;;;;;;;4.93;2.40;;;;;;;-145.69;82.15;73565.97;5095015;28;20595;-76
2022/02/12 10:14:12;;;;;;;7.53;2.90;;;;;;;-145.69;82.11;73560.00;5094838;28;20194;-75
2022/02/12 10:16:51;;;;;;;7.90;2.67;;;;;;;-145.69;82.11;73542.06;5094864;28;20695;-77
2022/02/12 10:19:18;;;;;;;6.87;2.60;;;;;;;-145.69;80.91;73548.03;5095259;28;20194;-76
2022/02/12 10:22:10;;;;;;;6.77;2.90;;;;;;;-145.69;87.04;73532.13;5094770;28;20583;-77
2022/02/12 10:25:04;;;;;;;4.10;2.40;;;;;;;-145.69;77.84;73508.22;5094807;28;20198;-77
2022/02/12 10:27:31;;;;;;;6.73;2.63;;;;;;;-145.69;75.69;73506.22;5076172;28;20233;-77
2022/02/12 10:30:01;;;;;;;7.27;2.17;;;;;;;-145.69;73.77;73498.28;5094619;28;20198;-75
2022/02/12 10:32:30;;;;;;;7.13;2.57;;;;;;;-145.69;74.30;73488.31;5095159;28;20199;-75
2022/02/12 10:35:05;;;;;;;6.40;2.43;;;;;;;-145.69;74.68;73488.31;5094379;28;20205;-76
2022/02/12 10:37:32;;;;;;;5.63;2.03;;;;;;;-145.69;69.33;73476.38;5094491;28;20691;-76
2022/02/12 10:40:00;;;;;;;6.37;3.50;;;;;;;-145.69;73.57;73456.47;5094761;28;20197;-75
2022/02/12 10:42:32;;;;;;;7.50;2.17;;;;;;;-145.69;67.90;73442.53;5094424;28;20665;-78
2022/02/12 10:44:58;;;;;;;4.07;2.00;;;;;;;-145.69;67.99;73436.56;5094392;28;20286;-78
2022/02/12 10:47:31;;;;;;;7.33;2.17;;;;;;;-145.69;69.81;73420.63;5094152;28;20700;-78
2022/02/12 10:50:03;;;;;;;11.13;2.40;;;;;;;-145.69;68.18;73410.66;5094495;28;20213;-78
2022/02/12 10:52:43;;;;;;;6.13;2.50;;;;;;;-145.69;67.44;73412.66;5094357;28;20340;-77
2022/02/12 10:55:29;;;;;;;4.00;2.10;;;;;;;-145.69;66.73;73404.69;5094027;28;20229;-81
2022/02/12 10:58:00;;;;;;;5.80;2.30;;;;;;;-145.69;64.61;73384.78;5094091;28;20583;-78
2022/02/12 11:00:31;;;;;;;3.53;2.00;;;;;;;-145.69;64.64;73380.81;5094021;28;20669;-76
2022/02/12 11:03:00;;;;;;;4.37;2.30;;;;;;;-145.69;63.18;73374.84;5106517;28;20634;-77
2022/02/12 11:05:28;;;;;;;2.80;1.83;;;;;;;-145.69;63.42;73358.91;5114365;28;20618;-76
2022/02/12 11:07:57;;;;;;;3.07;1.87;;;;;;;-145.69;61.37;73352.94;5114265;28;20229;-77
2022/02/12 11:10:24;;;;;;;4.90;1.73;;;;;;;-145.69;54.98;73366.88;5114122;28;20205;-77
2022/02/12 11:12:52;;;;;;;4.10;1.67;;;;;;;-145.69;54.52;73364.88;5110865;28;20205;-75
2022/02/12 11:15:25;;;;;;;4.23;1.80;;;;;;;-145.69;58.23;73368.88;5114264;28;20204;-74